sensor_id;sensor_type;location;lat;lon;timestamp;temperature;humidity
7366;DHT22;3723;52.220;8.792;2022-09-16T00:22:16;9.80;1.00
7366;DHT22;3723;52.220;8.792;2022-09-16T00:24:59;9.80;1.00
7366;DHT22;3723;52.220;8.792;2022-09-16T00:27:52;10.00;99.90
7366;DHT22;3723;52.220;8.792;2022-09-16T00:30:42;10.20;99.90
7366;DHT22;3723;52.220;8.792;2022-09-16T00:34:06;10.20;99.90
7366;DHT22;3723;52.220;8.792;2022-09-16T00:36:50;10.30;99.90
7366;DHT22;3723;52.220;8.792;2022-09-16T00:39:56;10.20;1.00
7366;DHT22;3723;52.220;8.792;2022-09-16T00:42:48;10.20;1.00
7366;DHT22;3723;52.220;8.792;2022-09-16T00:45:25;10.20;1.00
7366;DHT22;3723;52.220;8.792;2022-09-16T00:48:18;10.10;1.00
7366;DHT22;3723;52.220;8.792;2022-09-16T00:51:00;10.10;1.00
7366;DHT22;3723;52.220;8.792;2022-09-16T00:53:41;10.10;1.00
7366;DHT22;3723;52.220;8.792;2022-09-16T00:56:37;10.10;1.00
7366;DHT22;3723;52.220;8.792;2022-09-16T00:59:17;10.00;1.00
7366;DHT22;3723;52.220;8.792;2022-09-16T01:02:16;10.10;52.10
7366;DHT22;3723;52.220;8.792;2022-09-16T01:04:52;10.10;64.20
7366;DHT22;3723;52.220;8.792;2022-09-16T01:07:47;10.00;50.20
7366;DHT22;3723;52.220;8.792;2022-09-16T01:10:31;10.10;39.30
7366;DHT22;3723;52.220;8.792;2022-09-16T01:13:15;10.10;99.90
7366;DHT22;3723;52.220;8.792;2022-09-16T01:16:11;10.10;98.30
7366;DHT22;3723;52.220;8.792;2022-09-16T01:18:51;10.10;27.90
7366;DHT22;3723;52.220;8.792;2022-09-16T01:21:39;10.10;65.40
7366;DHT22;3723;52.220;8.792;2022-09-16T01:24:37;10.20;99.90
7366;DHT22;3723;52.220;8.792;2022-09-16T01:27:34;10.20;99.90
7366;DHT22;3723;52.220;8.792;2022-09-16T01:37:05;10.30;99.90
7366;DHT22;3723;52.220;8.792;2022-09-16T01:39:52;10.40;99.90
7366;DHT22;3723;52.220;8.792;2022-09-16T01:42:40;10.40;99.90
7366;DHT22;3723;52.220;8.792;2022-09-16T01:45:17;10.40;99.90
7366;DHT22;3723;52.220;8.792;2022-09-16T01:54:39;10.40;1.00
7366;DHT22;3723;52.220;8.792;2022-09-16T01:57:21;10.40;1.00
7366;DHT22;3723;52.220;8.792;2022-09-16T01:59:54;10.40;25.80
7366;DHT22;3723;52.220;8.792;2022-09-16T02:02:30;10.40;83.50
7366;DHT22;3723;52.220;8.792;2022-09-16T02:05:00;10.30;1.00
7366;DHT22;3723;52.220;8.792;2022-09-16T02:07:34;10.20;1.00
7366;DHT22;3723;52.220;8.792;2022-09-16T02:10:09;10.10;1.00
7366;DHT22;3723;52.220;8.792;2022-09-16T02:19:29;10.00;1.00
7366;DHT22;3723;52.220;8.792;2022-09-16T02:22:27;10.00;22.50
7366;DHT22;3723;52.220;8.792;2022-09-16T02:25:26;10.00;18.60
7366;DHT22;3723;52.220;8.792;2022-09-16T02:27:57;10.00;99.90
7366;DHT22;3723;52.220;8.792;2022-09-16T02:30:32;10.00;99.90
7366;DHT22;3723;52.220;8.792;2022-09-16T02:33:03;10.10;59.60
7366;DHT22;3723;52.220;8.792;2022-09-16T02:35:36;10.10;99.80
7366;DHT22;3723;52.220;8.792;2022-09-16T02:38:10;10.20;95.20
7366;DHT22;3723;52.220;8.792;2022-09-16T02:41:11;10.30;78.00
7366;DHT22;3723;52.220;8.792;2022-09-16T02:43:40;10.30;1.00
7366;DHT22;3723;52.220;8.792;2022-09-16T02:46:10;10.40;1.00
7366;DHT22;3723;52.220;8.792;2022-09-16T02:48:56;10.50;1.00
7366;DHT22;3723;52.220;8.792;2022-09-16T02:51:37;10.60;1.00
7366;DHT22;3723;52.220;8.792;2022-09-16T02:54:21;10.50;1.00
7366;DHT22;3723;52.220;8.792;2022-09-16T02:56:59;10.60;1.00
7366;DHT22;3723;52.220;8.792;2022-09-16T02:59:27;10.60;1.00
7366;DHT22;3723;52.220;8.792;2022-09-16T03:01:54;10.70;1.00
7366;DHT22;3723;52.220;8.792;2022-09-16T03:04:36;10.80;1.00
7366;DHT22;3723;52.220;8.792;2022-09-16T03:07:10;10.80;1.00
7366;DHT22;3723;52.220;8.792;2022-09-16T03:09:41;10.90;1.00
7366;DHT22;3723;52.220;8.792;2022-09-16T03:18:51;10.90;1.00
7366;DHT22;3723;52.220;8.792;2022-09-16T03:21:25;10.90;1.00
7366;DHT22;3723;52.220;8.792;2022-09-16T03:24:03;10.80;1.00
7366;DHT22;3723;52.220;8.792;2022-09-16T03:26:44;10.80;1.00
7366;DHT22;3723;52.220;8.792;2022-09-16T03:29:17;10.80;1.00
7366;DHT22;3723;52.220;8.792;2022-09-16T03:31:57;10.70;1.00
7366;DHT22;3723;52.220;8.792;2022-09-16T03:34:36;10.70;1.00
7366;DHT22;3723;52.220;8.792;2022-09-16T03:37:07;10.70;1.00
7366;DHT22;3723;52.220;8.792;2022-09-16T03:39:36;10.70;1.00
7366;DHT22;3723;52.220;8.792;2022-09-16T03:42:06;10.60;1.00
7366;DHT22;3723;52.220;8.792;2022-09-16T03:44:38;10.50;1.00
7366;DHT22;3723;52.220;8.792;2022-09-16T03:47:06;10.50;1.00
7366;DHT22;3723;52.220;8.792;2022-09-16T03:49:34;10.60;1.00
7366;DHT22;3723;52.220;8.792;2022-09-16T03:52:04;10.60;1.00
7366;DHT22;3723;52.220;8.792;2022-09-16T03:54:37;10.60;1.00
7366;DHT22;3723;52.220;8.792;2022-09-16T03:57:05;10.60;1.00
7366;DHT22;3723;52.220;8.792;2022-09-16T03:59:34;10.60;1.00
7366;DHT22;3723;52.220;8.792;2022-09-16T04:02:02;10.60;1.00
7366;DHT22;3723;52.220;8.792;2022-09-16T04:04:51;10.60;1.00
7366;DHT22;3723;52.220;8.792;2022-09-16T04:07:24;10.60;1.00
7366;DHT22;3723;52.220;8.792;2022-09-16T04:09:50;10.60;1.00
7366;DHT22;3723;52.220;8.792;2022-09-16T04:12:17;10.60;1.00
7366;DHT22;3723;52.220;8.792;2022-09-16T04:14:45;10.70;1.00
7366;DHT22;3723;52.220;8.792;2022-09-16T04:17:17;10.70;1.00
7366;DHT22;3723;52.220;8.792;2022-09-16T04:19:48;10.70;1.00
7366;DHT22;3723;52.220;8.792;2022-09-16T04:22:15;10.70;1.00
7366;DHT22;3723;52.220;8.792;2022-09-16T04:24:42;10.60;1.00
7366;DHT22;3723;52.220;8.792;2022-09-16T04:27:09;10.60;1.00
7366;DHT22;3723;52.220;8.792;2022-09-16T04:32:59;10.60;1.00
7366;DHT22;3723;52.220;8.792;2022-09-16T04:36:08;10.70;1.00
7366;DHT22;3723;52.220;8.792;2022-09-16T04:39:03;10.60;1.00
7366;DHT22;3723;52.220;8.792;2022-09-16T04:41:37;10.60;1.00
7366;DHT22;3723;52.220;8.792;2022-09-16T04:44:09;10.70;1.00
7366;DHT22;3723;52.220;8.792;2022-09-16T04:46:46;10.70;1.00
7366;DHT22;3723;52.220;8.792;2022-09-16T04:49:15;10.60;1.00
7366;DHT22;3723;52.220;8.792;2022-09-16T04:51:53;10.60;1.00
7366;DHT22;3723;52.220;8.792;2022-09-16T04:54:49;10.70;1.00
7366;DHT22;3723;52.220;8.792;2022-09-16T04:57:31;10.70;1.00
7366;DHT22;3723;52.220;8.792;2022-09-16T04:59:58;10.70;1.00
7366;DHT22;3723;52.220;8.792;2022-09-16T05:02:42;10.70;1.00
7366;DHT22;3723;52.220;8.792;2022-09-16T05:05:37;10.70;1.00
7366;DHT22;3723;52.220;8.792;2022-09-16T05:08:09;10.80;1.00
7366;DHT22;3723;52.220;8.792;2022-09-16T05:11:03;10.70;1.00
7366;DHT22;3723;52.220;8.792;2022-09-16T05:13:34;10.70;1.00
7366;DHT22;3723;52.220;8.792;2022-09-16T05:16:08;10.70;1.00
7366;DHT22;3723;52.220;8.792;2022-09-16T05:18:44;10.60;99.90
7366;DHT22;3723;52.220;8.792;2022-09-16T05:27:59;10.40;1.00
7366;DHT22;3723;52.220;8.792;2022-09-16T05:31:05;10.40;1.00
7366;DHT22;3723;52.220;8.792;2022-09-16T05:34:06;10.20;1.00
7366;DHT22;3723;52.220;8.792;2022-09-16T05:36:35;10.20;1.00
7366;DHT22;3723;52.220;8.792;2022-09-16T05:39:09;10.20;1.00
7366;DHT22;3723;52.220;8.792;2022-09-16T05:41:40;10.30;1.00
7366;DHT22;3723;52.220;8.792;2022-09-16T05:44:13;10.30;1.00
7366;DHT22;3723;52.220;8.792;2022-09-16T05:46:45;10.30;1.00
7366;DHT22;3723;52.220;8.792;2022-09-16T05:49:20;10.40;1.00
7366;DHT22;3723;52.220;8.792;2022-09-16T05:51:53;10.60;1.00
7366;DHT22;3723;52.220;8.792;2022-09-16T05:54:29;10.70;1.00
7366;DHT22;3723;52.220;8.792;2022-09-16T05:57:02;10.90;1.00
7366;DHT22;3723;52.220;8.792;2022-09-16T05:59:46;11.10;1.00
7366;DHT22;3723;52.220;8.792;2022-09-16T06:02:13;11.40;1.00
7366;DHT22;3723;52.220;8.792;2022-09-16T06:16:10;13.40;99.90
7366;DHT22;3723;52.220;8.792;2022-09-16T15:43:02;17.60;99.90
7366;DHT22;3723;52.220;8.792;2022-09-16T16:02:32;17.40;99.90
7366;DHT22;3723;52.220;8.792;2022-09-16T16:11:50;16.70;97.70
7366;DHT22;3723;52.220;8.792;2022-09-16T16:15:03;16.20;98.10
7366;DHT22;3723;52.220;8.792;2022-09-16T16:18:00;15.90;97.80
7366;DHT22;3723;52.220;8.792;2022-09-16T16:24:44;15.50;95.90
7366;DHT22;3723;52.220;8.792;2022-09-16T16:43:55;15.00;94.60
7366;DHT22;3723;52.220;8.792;2022-09-16T16:46:45;14.80;95.00
7366;DHT22;3723;52.220;8.792;2022-09-16T16:49:42;14.70;99.90
7366;DHT22;3723;52.220;8.792;2022-09-16T16:52:23;14.60;94.80
7366;DHT22;3723;52.220;8.792;2022-09-16T16:54:55;14.50;96.20
7366;DHT22;3723;52.220;8.792;2022-09-16T16:57:27;14.50;97.00
7366;DHT22;3723;52.220;8.792;2022-09-16T16:59:56;14.40;96.70
7366;DHT22;3723;52.220;8.792;2022-09-16T17:02:23;14.30;96.60
7366;DHT22;3723;52.220;8.792;2022-09-16T17:05:04;14.20;96.00
7366;DHT22;3723;52.220;8.792;2022-09-16T17:07:34;14.20;96.00
7366;DHT22;3723;52.220;8.792;2022-09-16T17:10:02;14.20;96.70
7366;DHT22;3723;52.220;8.792;2022-09-16T17:16:27;14.10;95.00
7366;DHT22;3723;52.220;8.792;2022-09-16T17:18:56;14.00;96.10
7366;DHT22;3723;52.220;8.792;2022-09-16T17:21:25;13.90;95.40
7366;DHT22;3723;52.220;8.792;2022-09-16T17:23:53;13.90;96.00
7366;DHT22;3723;52.220;8.792;2022-09-16T17:26:21;13.80;95.40
7366;DHT22;3723;52.220;8.792;2022-09-16T17:28:50;13.80;95.10
7366;DHT22;3723;52.220;8.792;2022-09-16T17:31:19;13.70;96.60
7366;DHT22;3723;52.220;8.792;2022-09-16T17:34:05;13.60;96.50
7366;DHT22;3723;52.220;8.792;2022-09-16T17:36:37;13.60;96.80
7366;DHT22;3723;52.220;8.792;2022-09-16T17:39:13;13.60;97.40
7366;DHT22;3723;52.220;8.792;2022-09-16T17:42:16;13.50;97.20
7366;DHT22;3723;52.220;8.792;2022-09-16T17:44:44;13.40;97.30
7366;DHT22;3723;52.220;8.792;2022-09-16T17:47:14;13.40;98.30
7366;DHT22;3723;52.220;8.792;2022-09-16T17:49:49;13.40;99.40
7366;DHT22;3723;52.220;8.792;2022-09-16T17:52:18;13.30;99.70
7366;DHT22;3723;52.220;8.792;2022-09-16T17:54:45;13.30;99.90
7366;DHT22;3723;52.220;8.792;2022-09-16T17:57:16;13.30;99.90
7366;DHT22;3723;52.220;8.792;2022-09-16T17:59:43;13.30;99.20
7366;DHT22;3723;52.220;8.792;2022-09-16T18:02:21;13.30;99.90
7366;DHT22;3723;52.220;8.792;2022-09-16T18:04:50;13.30;99.90
7366;DHT22;3723;52.220;8.792;2022-09-16T18:07:20;13.30;99.90
7366;DHT22;3723;52.220;8.792;2022-09-16T18:09:47;13.20;99.90
7366;DHT22;3723;52.220;8.792;2022-09-16T18:12:14;13.20;99.90
7366;DHT22;3723;52.220;8.792;2022-09-16T18:14:45;13.30;99.90
7366;DHT22;3723;52.220;8.792;2022-09-16T18:17:12;13.20;99.90
7366;DHT22;3723;52.220;8.792;2022-09-16T18:19:46;13.10;99.90
7366;DHT22;3723;52.220;8.792;2022-09-16T18:22:18;13.20;99.90
7366;DHT22;3723;52.220;8.792;2022-09-16T18:24:50;13.20;99.90
7366;DHT22;3723;52.220;8.792;2022-09-16T18:27:20;13.10;99.90
7366;DHT22;3723;52.220;8.792;2022-09-16T18:33:12;13.10;99.90
7366;DHT22;3723;52.220;8.792;2022-09-16T18:39:24;13.00;99.90
7366;DHT22;3723;52.220;8.792;2022-09-16T18:41:59;12.70;99.90
